createdAt,value
2019-02-26T00:02:05.721Z,100359.00
2019-02-26T00:04:36.923Z,100368.00
2019-02-26T00:07:06.814Z,100363.00
2019-02-26T00:09:36.502Z,100366.00
2019-02-26T00:12:06.322Z,100364.00
2019-02-26T00:14:36.254Z,100376.00
2019-02-26T00:17:09.003Z,100375.00
2019-02-26T00:19:37.746Z,100381.00
2019-02-26T00:22:09.440Z,100368.00
2019-02-26T00:24:39.891Z,100376.00
2019-02-26T00:27:10.205Z,100379.00
2019-02-26T00:29:40.056Z,100368.00
2019-02-26T00:32:11.735Z,100369.00
2019-02-26T00:34:42.835Z,100361.00
2019-02-26T00:37:12.551Z,100366.00
2019-02-26T00:39:47.315Z,100364.00
2019-02-26T00:42:19.563Z,100358.00
2019-02-26T00:44:51.304Z,100361.00
2019-02-26T00:47:20.092Z,100360.00
2019-02-26T00:49:51.020Z,100371.00
2019-02-26T00:52:21.421Z,100368.00
2019-02-26T00:54:53.585Z,100374.00
2019-02-26T00:57:27.172Z,100372.00
2019-02-26T00:59:55.627Z,100375.00
2019-02-26T01:02:25.733Z,100378.00
2019-02-26T01:04:55.659Z,100375.00
2019-02-26T01:07:26.108Z,100383.00
2019-02-26T01:09:57.477Z,100392.00
2019-02-26T01:12:28.360Z,100387.00
2019-02-26T01:14:58.181Z,100384.00
2019-02-26T01:17:27.765Z,100377.00
2019-02-26T01:19:58.860Z,100382.00
2019-02-26T01:22:31.060Z,100376.00
2019-02-26T01:25:00.713Z,100372.00
2019-02-26T01:27:30.911Z,100363.00
2019-02-26T01:30:03.438Z,100364.00
2019-02-26T01:32:33.216Z,100375.00
2019-02-26T01:35:03.446Z,100367.00
2019-02-26T01:37:36.562Z,100365.00
2019-02-26T01:40:09.550Z,100374.00
2019-02-26T01:42:38.937Z,100376.00
2019-02-26T01:45:09.684Z,100372.00
2019-02-26T01:47:40.508Z,100379.00
2019-02-26T01:50:13.533Z,100374.00
2019-02-26T01:52:43.286Z,100375.00
2019-02-26T01:55:13.020Z,100368.00
2019-02-26T01:57:43.732Z,100354.00
2019-02-26T02:00:14.928Z,100359.00
2019-02-26T02:02:44.732Z,100351.00
2019-02-26T02:05:14.677Z,100356.00
2019-02-26T02:07:46.763Z,100347.00
2019-02-26T02:10:15.782Z,100346.00
2019-02-26T02:12:46.470Z,100338.00
2019-02-26T02:15:18.853Z,100346.00
2019-02-26T02:17:47.550Z,100330.00
2019-02-26T02:20:20.815Z,100344.00
2019-02-26T02:22:50.069Z,100330.00
2019-02-26T02:25:19.780Z,100332.00
2019-02-26T02:27:51.883Z,100326.00
2019-02-26T02:30:26.659Z,100332.00
2019-02-26T02:32:55.060Z,100332.00
2019-02-26T02:35:23.663Z,100334.00
2019-02-26T02:37:54.413Z,100313.00
2019-02-26T02:40:24.811Z,100313.00
2019-02-26T02:42:54.631Z,100324.00
2019-02-26T02:45:25.762Z,100323.00
2019-02-26T02:48:00.313Z,100323.00
2019-02-26T02:50:27.029Z,100316.00
2019-02-26T02:52:59.237Z,100304.00
2019-02-26T02:55:31.010Z,100305.00
2019-02-26T02:58:00.981Z,100299.00
2019-02-26T03:00:32.261Z,100291.00
2019-02-26T03:03:02.347Z,100291.00
2019-02-26T03:05:35.180Z,100288.00
2019-02-26T03:08:03.711Z,100292.00
2019-02-26T03:10:34.620Z,100286.00
2019-02-26T03:13:05.078Z,100288.00
2019-02-26T03:15:35.851Z,100279.00
2019-02-26T03:18:07.161Z,100298.00
2019-02-26T03:20:40.266Z,100297.00
2019-02-26T03:23:09.893Z,100298.00
2019-02-26T03:25:41.437Z,100299.00
2019-02-26T03:28:11.552Z,100302.00
2019-02-26T03:30:44.394Z,100300.00
2019-02-26T03:33:12.719Z,100298.00
2019-02-26T03:35:43.942Z,100301.00
2019-02-26T03:38:15.313Z,100288.00
2019-02-26T03:40:44.960Z,100288.00
2019-02-26T03:43:16.248Z,100290.00
2019-02-26T03:45:48.098Z,100292.00
2019-02-26T03:48:20.314Z,100278.00
2019-02-26T03:50:48.781Z,100286.00
2019-02-26T03:53:18.470Z,100268.00
2019-02-26T03:55:48.302Z,100281.00
2019-02-26T03:58:17.991Z,100268.00
2019-02-26T04:00:47.919Z,100265.00
2019-02-26T04:03:17.834Z,100265.00
2019-02-26T04:05:47.850Z,100279.00
2019-02-26T04:08:20.034Z,100269.00
2019-02-26T04:10:49.960Z,100264.00
2019-02-26T04:13:20.649Z,100271.00
2019-02-26T04:15:51.358Z,100269.00
2019-02-26T04:18:21.406Z,100273.00
2019-02-26T04:20:51.523Z,100272.00
2019-02-26T04:23:21.994Z,100265.00
2019-02-26T04:26:04.525Z,100270.00
2019-02-26T04:29:26.585Z,100272.00
2019-02-26T04:32:43.583Z,100278.00
2019-02-26T04:35:44.978Z,100253.00
2019-02-26T04:39:03.943Z,100264.00
2019-02-26T04:42:03.335Z,100266.00
2019-02-26T04:45:18.233Z,100263.00
2019-02-26T04:47:49.571Z,100268.00
2019-02-26T04:50:23.051Z,100269.00
2019-02-26T04:52:50.513Z,100264.00
2019-02-26T04:55:20.357Z,100260.00
2019-02-26T04:57:51.106Z,100266.00
2019-02-26T05:00:23.520Z,100261.00
2019-02-26T05:02:53.071Z,100254.00
2019-02-26T05:05:25.167Z,100265.00
2019-02-26T05:07:54.346Z,100263.00
2019-02-26T05:10:26.472Z,100262.00
2019-02-26T05:12:57.152Z,100253.00
2019-02-26T05:15:30.016Z,100257.00
2019-02-26T05:17:59.125Z,100245.00
2019-02-26T05:20:28.830Z,100246.00
2019-02-26T05:23:01.025Z,100246.00
2019-02-26T05:25:31.568Z,100252.00
2019-02-26T05:28:03.679Z,100249.00
2019-02-26T05:30:32.723Z,100239.00
2019-02-26T05:33:03.023Z,100247.00
2019-02-26T05:35:34.620Z,100250.00
2019-02-26T05:38:06.915Z,100247.00
2019-02-26T05:40:37.812Z,100253.00
2019-02-26T05:43:07.392Z,100254.00
2019-02-26T05:45:37.252Z,100266.00
2019-02-26T05:48:07.107Z,100264.00
2019-02-26T05:50:38.711Z,100272.00
2019-02-26T05:53:10.442Z,100278.00
2019-02-26T05:55:42.261Z,100276.00
2019-02-26T05:58:15.167Z,100266.00
2019-02-26T06:00:42.451Z,100264.00
2019-02-26T06:03:15.524Z,100262.00
2019-02-26T06:05:48.936Z,100277.00
2019-02-26T06:08:18.543Z,100265.00
2019-02-26T06:10:48.456Z,100282.00
2019-02-26T06:13:18.377Z,100294.00
2019-02-26T06:15:48.177Z,100295.00
2019-02-26T06:18:17.795Z,100301.00
2019-02-26T06:20:48.554Z,100300.00
2019-02-26T06:23:18.853Z,100287.00
2019-02-26T06:25:48.637Z,100298.00
2019-02-26T06:28:20.515Z,100293.00
2019-02-26T06:30:50.849Z,100288.00
2019-02-26T06:33:20.685Z,100283.00
2019-02-26T06:35:50.694Z,100289.00
2019-02-26T06:38:20.616Z,100282.00
2019-02-26T06:40:51.355Z,100274.00
2019-02-26T06:43:21.345Z,100275.00
2019-02-26T06:45:51.051Z,100286.00
2019-02-26T06:48:24.430Z,100279.00
2019-02-26T06:50:52.137Z,100276.00
2019-02-26T06:53:22.029Z,100284.00
2019-02-26T06:55:53.488Z,100278.00
2019-02-26T06:58:27.466Z,100278.00
2019-02-26T07:00:58.829Z,100277.00
2019-02-26T07:03:28.971Z,100275.00
2019-02-26T07:06:01.621Z,100277.00
2019-02-26T07:08:31.038Z,100282.00
2019-02-26T07:11:00.947Z,100283.00
2019-02-26T07:13:30.672Z,100290.00
2019-02-26T07:16:04.618Z,100277.00
2019-02-26T07:18:33.281Z,100288.00
2019-02-26T07:21:03.286Z,100278.00
2019-02-26T07:23:35.043Z,100282.00
2019-02-26T07:26:04.734Z,100269.00
2019-02-26T07:28:34.473Z,100279.00
2019-02-26T07:31:05.471Z,100277.00
2019-02-26T07:33:37.003Z,100286.00
2019-02-26T07:36:07.436Z,100289.00
2019-02-26T07:38:41.369Z,100288.00
2019-02-26T07:41:08.941Z,100287.00
2019-02-26T07:43:41.065Z,100283.00
2019-02-26T07:46:12.122Z,100270.00
2019-02-26T07:48:41.582Z,100279.00
2019-02-26T07:51:11.435Z,100277.00
2019-02-26T07:53:44.410Z,100266.00
2019-02-26T07:56:12.665Z,100266.00
2019-02-26T07:58:43.130Z,100270.00
2019-02-26T08:01:12.983Z,100265.00
2019-02-26T08:03:43.955Z,100260.00
2019-02-26T08:06:14.379Z,100266.00
2019-02-26T08:08:44.959Z,100267.00
2019-02-26T08:11:15.331Z,100255.00
2019-02-26T08:13:46.779Z,100260.00
2019-02-26T08:16:18.333Z,100262.00
2019-02-26T08:18:49.401Z,100270.00
2019-02-26T08:21:21.750Z,100250.00
2019-02-26T08:23:52.709Z,100265.00
2019-02-26T08:26:24.242Z,100255.00
2019-02-26T08:28:53.960Z,100260.00
2019-02-26T08:31:25.470Z,100269.00
2019-02-26T08:33:55.210Z,100277.00
2019-02-26T08:36:24.910Z,100271.00
2019-02-26T08:38:57.031Z,100268.00
2019-02-26T08:41:26.063Z,100268.00
2019-02-26T08:43:56.456Z,100275.00
2019-02-26T08:46:27.291Z,100275.00
2019-02-26T08:48:56.959Z,100267.00
2019-02-26T08:51:26.788Z,100260.00
2019-02-26T08:53:57.226Z,100264.00
2019-02-26T08:56:28.294Z,100263.00
2019-02-26T08:59:00.837Z,100272.00
2019-02-26T09:01:30.123Z,100270.00
2019-02-26T09:04:00.807Z,100278.00
2019-02-26T09:06:31.886Z,100269.00
2019-02-26T09:09:02.707Z,100264.00
2019-02-26T09:11:33.898Z,100274.00
2019-02-26T09:14:06.600Z,100271.00
2019-02-26T09:16:35.747Z,100272.00
2019-02-26T09:19:07.581Z,100270.00
2019-02-26T09:21:39.499Z,100266.00
2019-02-26T09:24:09.198Z,100273.00
2019-02-26T09:26:38.834Z,100274.00
2019-02-26T09:29:10.333Z,100263.00
2019-02-26T09:31:40.315Z,100263.00
2019-02-26T09:34:10.491Z,100269.00
2019-02-26T09:36:40.325Z,100260.00
2019-02-26T09:39:10.665Z,100260.00
2019-02-26T09:41:43.342Z,100274.00
2019-02-26T09:44:13.118Z,100286.00
2019-02-26T09:46:43.953Z,100280.00
2019-02-26T09:49:13.909Z,100282.00
2019-02-26T09:51:43.822Z,100288.00
2019-02-26T09:54:15.225Z,100291.00
2019-02-26T09:56:45.494Z,100274.00
2019-02-26T09:59:15.319Z,100283.00
2019-02-26T10:01:45.206Z,100284.00
2019-02-26T10:04:17.205Z,100284.00
2019-02-26T10:06:47.520Z,100283.00
2019-02-26T10:09:18.739Z,100285.00
2019-02-26T10:11:49.246Z,100271.00
2019-02-26T10:14:20.545Z,100274.00
2019-02-26T10:16:55.182Z,100272.00
2019-02-26T10:19:24.542Z,100280.00
2019-02-26T10:21:54.266Z,100274.00
2019-02-26T10:24:27.148Z,100277.00
2019-02-26T10:26:58.677Z,100284.00
2019-02-26T10:29:27.350Z,100279.00
2019-02-26T10:31:57.114Z,100281.00
2019-02-26T10:34:30.267Z,100282.00
2019-02-26T10:36:58.904Z,100288.00
2019-02-26T10:39:29.092Z,100288.00
2019-02-26T10:42:01.982Z,100279.00
2019-02-26T10:44:30.301Z,100273.00
2019-02-26T10:47:02.702Z,100282.00
2019-02-26T10:49:32.799Z,100279.00
2019-02-26T10:52:02.587Z,100278.00
2019-02-26T10:54:39.504Z,100275.00
2019-02-26T10:57:07.434Z,100273.00
2019-02-26T10:59:35.055Z,100281.00
2019-02-26T11:02:06.255Z,100276.00
2019-02-26T11:04:41.072Z,100263.00
2019-02-26T11:07:09.335Z,100273.00
2019-02-26T11:09:39.172Z,100290.00
2019-02-26T11:12:09.067Z,100280.00
2019-02-26T11:14:39.579Z,100270.00
2019-02-26T11:17:10.539Z,100268.00
2019-02-26T11:19:41.838Z,100261.00
2019-02-26T11:22:11.621Z,100253.00
2019-02-26T11:24:41.432Z,100243.00
2019-02-26T11:27:11.304Z,100241.00
2019-02-26T11:29:41.246Z,100235.00
2019-02-26T11:32:12.960Z,100226.00
2019-02-26T11:34:43.493Z,100231.00
2019-02-26T11:37:13.024Z,100226.00
2019-02-26T11:39:42.765Z,100224.00
2019-02-26T11:42:12.689Z,100214.00
2019-02-26T11:44:42.460Z,100216.00
2019-02-26T11:47:13.685Z,100212.00
2019-02-26T11:49:44.289Z,100210.00
2019-02-26T11:52:15.271Z,100214.00
2019-02-26T11:54:45.126Z,100206.00
2019-02-26T11:57:15.826Z,100210.00
2019-02-26T11:59:46.880Z,100206.00
2019-02-26T12:02:25.266Z,100199.00
2019-02-26T12:04:48.053Z,100190.00
2019-02-26T12:07:17.733Z,100187.00
2019-02-26T12:09:47.583Z,100198.00
2019-02-26T12:12:17.261Z,100192.00
2019-02-26T12:14:48.531Z,100187.00
2019-02-26T12:17:18.414Z,100179.00
2019-02-26T12:19:51.478Z,100175.00
2019-02-26T12:22:22.770Z,100172.00
2019-02-26T12:24:55.778Z,100165.00
2019-02-26T12:27:23.843Z,100172.00
2019-02-26T12:29:54.573Z,100163.00
2019-02-26T12:32:24.949Z,100167.00
2019-02-26T12:34:55.930Z,100154.00
2019-02-26T12:37:25.445Z,100155.00
2019-02-26T12:39:57.752Z,100169.00
2019-02-26T12:42:26.723Z,100153.00
2019-02-26T12:44:57.530Z,100155.00
2019-02-26T12:47:28.475Z,100140.00
2019-02-26T12:49:58.701Z,100144.00
2019-02-26T12:52:30.420Z,100142.00
2019-02-26T12:55:00.801Z,100140.00
2019-02-26T12:57:31.835Z,100124.00
2019-02-26T13:00:01.656Z,100117.00
2019-02-26T13:02:31.377Z,100106.00
2019-02-26T13:05:01.350Z,100104.00
2019-02-26T13:07:31.225Z,100109.00
2019-02-26T13:10:03.887Z,100116.00
2019-02-26T13:12:32.608Z,100102.00
2019-02-26T13:15:05.640Z,100103.00
2019-02-26T13:17:34.045Z,100094.00
2019-02-26T13:20:05.968Z,100083.00
2019-02-26T13:22:35.186Z,100087.00
2019-02-26T13:25:13.289Z,100074.00
2019-02-26T13:27:38.763Z,100076.00
2019-02-26T13:30:09.413Z,100067.00
2019-02-26T13:32:55.095Z,100065.00
2019-02-26T13:35:11.018Z,100056.00
2019-02-26T13:37:42.451Z,100045.00
2019-02-26T13:40:14.179Z,100045.00
2019-02-26T13:42:49.874Z,100036.00
2019-02-26T13:45:19.676Z,100032.00
2019-02-26T13:47:49.214Z,100037.00
2019-02-26T13:50:22.413Z,100030.00
2019-02-26T13:52:52.112Z,100023.00
2019-02-26T13:55:21.777Z,100018.00
2019-02-26T13:57:51.418Z,100015.00
2019-02-26T14:00:26.358Z,100002.00
2019-02-26T14:02:53.018Z,99997.00
2019-02-26T14:05:22.803Z,99994.00
2019-02-26T14:07:52.591Z,99998.00
2019-02-26T14:10:22.547Z,99994.00
2019-02-26T14:12:52.714Z,99992.00
2019-02-26T14:15:23.738Z,99985.00
2019-02-26T14:17:53.844Z,99995.00
2019-02-26T14:20:25.075Z,99993.00
2019-02-26T14:22:55.118Z,100000.00
2019-02-26T14:25:24.796Z,99999.00
2019-02-26T14:27:54.999Z,99993.00
2019-02-26T14:30:25.038Z,99993.00
2019-02-26T14:32:54.655Z,99986.00
2019-02-26T14:35:24.544Z,99987.00
2019-02-26T14:37:54.381Z,99987.00
2019-02-26T14:40:24.176Z,99985.00
2019-02-26T14:42:53.904Z,99987.00
2019-02-26T14:45:23.820Z,99989.00
2019-02-26T14:47:53.625Z,99972.00
2019-02-26T14:50:26.548Z,99972.00
2019-02-26T14:52:56.319Z,99980.00
2019-02-26T14:55:26.038Z,99984.00
2019-02-26T14:57:55.748Z,99985.00
2019-02-26T15:00:26.791Z,99971.00
2019-02-26T15:02:56.609Z,99979.00
2019-02-26T15:05:26.744Z,99979.00
2019-02-26T15:07:56.834Z,99983.00
2019-02-26T15:10:28.497Z,99981.00
2019-02-26T15:12:58.718Z,99982.00
2019-02-26T15:15:28.625Z,99974.00
2019-02-26T15:17:58.464Z,99979.00
2019-02-26T15:20:28.366Z,99973.00
2019-02-26T15:22:58.111Z,99973.00
2019-02-26T15:25:28.588Z,99982.00
2019-02-26T15:28:04.505Z,99980.00
2019-02-26T15:30:31.289Z,99978.00
2019-02-26T15:33:01.031Z,99978.00
2019-02-26T15:35:31.063Z,99968.00
2019-02-26T15:38:00.772Z,99965.00
2019-02-26T15:40:30.593Z,99972.00
2019-02-26T15:43:00.399Z,99968.00
2019-02-26T15:45:30.463Z,99971.00
2019-02-26T15:48:03.722Z,99964.00
2019-02-26T15:50:31.789Z,99957.00
2019-02-26T15:53:02.094Z,99961.00
2019-02-26T15:55:31.822Z,99960.00
2019-02-26T15:58:04.389Z,99960.00
2019-02-26T16:00:37.727Z,99959.00
2019-02-26T16:03:06.848Z,99945.00
2019-02-26T16:05:37.695Z,99961.00
2019-02-26T16:08:07.695Z,99953.00
2019-02-26T16:10:37.732Z,99954.00
2019-02-26T16:13:13.495Z,99951.00
2019-02-26T16:15:43.440Z,99951.00
2019-02-26T16:18:13.534Z,99949.00
2019-02-26T16:20:43.549Z,99944.00
2019-02-26T16:23:13.203Z,99946.00
2019-02-26T16:25:42.867Z,99942.00
2019-02-26T16:28:12.591Z,99946.00
2019-02-26T16:30:43.813Z,99954.00
2019-02-26T16:33:14.461Z,99950.00
2019-02-26T16:35:45.538Z,99953.00
2019-02-26T16:38:15.423Z,99953.00
2019-02-26T16:40:45.645Z,99947.00
2019-02-26T16:43:17.056Z,99951.00
2019-02-26T16:45:46.814Z,99959.00
2019-02-26T16:48:21.351Z,99961.00
2019-02-26T16:50:50.333Z,99955.00
2019-02-26T16:53:20.211Z,99965.00
2019-02-26T16:55:49.942Z,99963.00
2019-02-26T16:58:20.784Z,99963.00
2019-02-26T17:00:50.820Z,99961.00
2019-02-26T17:03:21.046Z,99954.00
2019-02-26T17:05:50.926Z,99956.00
2019-02-26T17:08:22.291Z,99957.00
2019-02-26T17:10:52.235Z,99963.00
2019-02-26T17:13:22.221Z,99975.00
2019-02-26T17:15:52.483Z,99978.00
2019-02-26T17:18:22.188Z,99981.00
2019-02-26T17:20:52.053Z,99990.00
2019-02-26T17:23:24.710Z,99986.00
2019-02-26T17:25:54.662Z,99988.00
2019-02-26T17:28:24.287Z,99996.00
2019-02-26T17:30:57.440Z,99993.00
2019-02-26T17:33:34.477Z,100013.00
2019-02-26T17:36:04.443Z,100003.00
2019-02-26T17:38:34.453Z,100004.00
2019-02-26T17:41:04.591Z,100005.00
2019-02-26T17:43:35.437Z,100005.00
2019-02-26T17:46:05.284Z,100003.00
2019-02-26T17:48:43.309Z,99998.00
2019-02-26T17:51:08.577Z,100000.00
2019-02-26T17:53:40.231Z,100003.00
2019-02-26T17:56:10.389Z,100008.00
2019-02-26T17:58:41.689Z,100007.00
2019-02-26T18:01:12.725Z,99995.00
2019-02-26T18:03:45.306Z,100007.00
2019-02-26T18:06:14.431Z,100011.00
2019-02-26T18:08:44.537Z,100004.00
2019-02-26T18:11:14.656Z,100010.00
2019-02-26T18:13:44.785Z,100014.00
2019-02-26T18:16:14.790Z,100011.00
2019-02-26T18:18:45.857Z,100020.00
2019-02-26T18:21:16.472Z,100013.00
2019-02-26T18:23:46.530Z,100006.00
2019-02-26T18:26:17.917Z,100007.00
2019-02-26T18:28:48.340Z,100006.00
2019-02-26T18:31:26.251Z,100010.00
2019-02-26T18:33:50.784Z,100004.00
2019-02-26T18:36:23.349Z,100011.00
2019-02-26T18:38:53.809Z,100008.00
2019-02-26T18:41:23.494Z,100008.00
2019-02-26T18:43:53.494Z,100007.00
2019-02-26T18:46:26.194Z,100013.00
2019-02-26T18:48:56.104Z,100009.00
2019-02-26T18:51:26.639Z,100000.00
2019-02-26T18:53:56.825Z,100001.00
2019-02-26T18:56:27.171Z,100003.00
2019-02-26T18:58:56.964Z,100008.00
2019-02-26T19:01:28.472Z,99997.00
2019-02-26T19:03:58.350Z,99996.00
2019-02-26T19:06:28.566Z,100000.00
2019-02-26T19:08:58.506Z,100005.00
2019-02-26T19:11:28.282Z,99995.00
2019-02-26T19:13:57.882Z,100004.00
2019-02-26T19:16:27.727Z,100011.00
2019-02-26T19:18:57.635Z,100010.00
2019-02-26T19:21:42.511Z,100008.00
2019-02-26T19:24:12.137Z,100007.00
2019-02-26T19:26:41.840Z,99996.00
2019-02-26T19:29:12.792Z,99995.00
2019-02-26T19:31:43.235Z,99993.00
2019-02-26T19:34:13.216Z,99995.00
2019-02-26T19:36:45.683Z,99991.00
2019-02-26T19:39:15.661Z,100001.00
2019-02-26T19:41:45.937Z,99981.00
2019-02-26T19:44:15.640Z,99993.00
2019-02-26T19:46:49.431Z,100006.00
2019-02-26T19:49:17.054Z,99995.00
2019-02-26T19:51:46.859Z,99994.00
2019-02-26T19:54:16.608Z,99985.00
2019-02-26T19:56:46.524Z,99981.00
2019-02-26T19:59:16.441Z,99981.00
2019-02-26T20:01:47.505Z,99992.00
2019-02-26T20:04:17.309Z,99972.00
2019-02-26T20:06:47.435Z,99976.00
2019-02-26T20:09:18.583Z,99985.00
2019-02-26T20:11:49.850Z,99981.00
2019-02-26T20:14:21.676Z,99973.00
2019-02-26T20:16:51.606Z,99963.00
2019-02-26T20:19:22.651Z,99960.00
2019-02-26T20:21:52.436Z,99967.00
2019-02-26T20:24:22.480Z,99960.00
2019-02-26T20:26:52.484Z,99963.00
2019-02-26T20:29:22.393Z,99963.00
2019-02-26T20:31:55.425Z,99958.00
2019-02-26T20:34:24.274Z,99957.00
2019-02-26T20:36:54.238Z,99961.00
2019-02-26T20:39:24.537Z,99968.00
2019-02-26T20:41:55.695Z,99961.00
2019-02-26T20:44:26.418Z,99968.00
2019-02-26T20:46:58.139Z,99968.00
2019-02-26T20:49:27.676Z,99968.00
2019-02-26T20:51:59.572Z,99969.00
2019-02-26T20:54:30.422Z,99968.00
2019-02-26T20:57:04.026Z,99967.00
2019-02-26T20:59:34.434Z,99971.00
2019-02-26T21:02:04.023Z,99977.00
2019-02-26T21:04:33.738Z,99967.00
2019-02-26T21:07:03.858Z,99978.00
2019-02-26T21:09:33.655Z,99981.00
2019-02-26T21:12:03.505Z,99979.00
2019-02-26T21:14:33.167Z,99981.00
2019-02-26T21:17:03.612Z,99974.00
2019-02-26T21:19:35.578Z,99968.00
2019-02-26T21:22:04.915Z,99971.00
2019-02-26T21:24:35.807Z,99963.00
2019-02-26T21:27:05.835Z,99973.00
2019-02-26T21:29:38.666Z,99969.00
2019-02-26T21:32:08.863Z,99963.00
2019-02-26T21:34:38.752Z,99951.00
2019-02-26T21:37:08.344Z,99960.00
2019-02-26T21:39:38.484Z,99956.00
2019-02-26T21:42:08.319Z,99959.00
2019-02-26T21:44:41.648Z,99951.00
2019-02-26T21:47:09.576Z,99958.00
2019-02-26T21:49:40.885Z,99957.00
2019-02-26T21:52:12.057Z,99958.00
2019-02-26T21:54:42.880Z,99958.00
2019-02-26T21:57:12.636Z,99976.00
2019-02-26T21:59:49.785Z,99967.00
2019-02-26T22:02:13.748Z,99970.00
2019-02-26T22:04:43.586Z,99963.00
2019-02-26T22:07:13.536Z,99967.00
2019-02-26T22:09:43.766Z,99970.00
2019-02-26T22:12:13.955Z,99972.00
2019-02-26T22:14:43.958Z,99971.00
2019-02-26T22:17:14.145Z,99972.00
2019-02-26T22:19:43.979Z,99981.00
2019-02-26T22:22:13.715Z,99981.00
2019-02-26T22:24:43.547Z,99976.00
2019-02-26T22:27:13.338Z,99969.00
2019-02-26T22:29:43.259Z,99982.00
2019-02-26T22:32:13.330Z,99979.00
2019-02-26T22:34:43.031Z,99984.00
2019-02-26T22:37:12.785Z,99978.00
2019-02-26T22:39:42.405Z,99982.00
2019-02-26T22:42:12.319Z,99976.00
2019-02-26T22:44:41.833Z,99968.00
2019-02-26T22:47:13.469Z,99964.00
2019-02-26T22:49:43.004Z,99980.00
2019-02-26T22:52:13.168Z,99969.00
2019-02-26T22:54:43.475Z,99978.00
2019-02-26T22:57:13.341Z,99968.00
2019-02-26T22:59:43.073Z,99983.00
2019-02-26T23:02:12.714Z,99977.00
2019-02-26T23:04:42.298Z,99970.00
2019-02-26T23:07:11.983Z,99971.00
2019-02-26T23:09:41.878Z,99973.00
2019-02-26T23:12:11.535Z,99969.00
2019-02-26T23:14:41.816Z,99968.00
2019-02-26T23:17:11.540Z,99968.00
2019-02-26T23:19:41.259Z,99976.00
2019-02-26T23:22:10.958Z,99975.00
2019-02-26T23:24:40.474Z,99972.00
2019-02-26T23:27:12.859Z,99982.00
2019-02-26T23:29:42.062Z,99976.00
2019-02-26T23:32:11.844Z,99968.00
2019-02-26T23:34:42.210Z,99985.00
2019-02-26T23:37:11.894Z,99984.00
2019-02-26T23:39:41.851Z,99994.00
2019-02-26T23:42:11.622Z,99979.00
2019-02-26T23:44:41.358Z,99994.00
2019-02-26T23:47:11.270Z,99988.00
2019-02-26T23:49:41.203Z,99984.00
2019-02-26T23:52:11.086Z,99989.00
2019-02-26T23:54:40.847Z,99992.00
2019-02-26T23:57:10.525Z,99991.00
2019-02-26T23:59:40.122Z,99976.00
